createdAt,value
2019-02-25T00:01:25.488Z,102253.17
2019-02-25T00:03:53.436Z,102247.00
2019-02-25T00:06:21.540Z,102248.31
2019-02-25T00:08:49.465Z,102240.48
2019-02-25T00:11:17.973Z,102232.60
2019-02-25T00:13:46.525Z,102225.11
2019-02-25T00:16:14.363Z,102222.48
2019-02-25T00:18:42.196Z,102223.63
2019-02-25T00:21:10.026Z,102221.00
2019-02-25T00:23:37.771Z,102225.52
2019-02-25T00:26:11.256Z,102227.36
2019-02-25T00:28:39.004Z,102233.27
2019-02-25T00:31:06.916Z,102245.56
2019-02-25T00:33:34.758Z,102248.20
2019-02-25T00:36:02.687Z,102253.05
2019-02-25T00:38:31.269Z,102250.30
2019-02-25T00:40:59.172Z,102253.97
2019-02-25T00:43:26.953Z,102251.13
2019-02-25T00:45:54.760Z,102262.51
2019-02-25T00:48:22.522Z,102264.88
2019-02-25T00:50:50.327Z,102254.50
2019-02-25T00:53:19.059Z,102254.28
2019-02-25T00:55:47.602Z,102252.27
2019-02-25T00:58:15.502Z,102249.42
2019-02-25T01:00:43.479Z,102248.20
2019-02-25T01:03:11.431Z,102247.33
2019-02-25T01:05:39.478Z,102236.77
2019-02-25T01:08:07.909Z,102240.31
2019-02-25T01:10:35.941Z,102242.02
2019-02-25T01:13:03.962Z,102243.52
2019-02-25T01:15:31.842Z,102240.89
2019-02-25T01:18:00.105Z,102238.27
2019-02-25T01:20:27.921Z,102240.05
2019-02-25T01:22:55.833Z,102239.13
2019-02-25T01:25:23.705Z,102235.58
2019-02-25T01:27:51.608Z,102227.05
2019-02-25T01:30:20.593Z,102225.34
2019-02-25T01:32:48.428Z,102218.83
2019-02-25T01:35:16.370Z,102217.59
2019-02-25T01:37:44.371Z,102211.86
2019-02-25T01:40:12.473Z,102217.25
2019-02-25T01:42:40.301Z,102215.50
2019-02-25T01:45:10.212Z,102217.98
2019-02-25T01:47:38.351Z,102215.50
2019-02-25T01:50:06.742Z,102213.52
2019-02-25T01:52:34.553Z,102212.47
2019-02-25T01:55:02.411Z,102211.16
2019-02-25T01:57:30.239Z,102211.69
2019-02-25T01:59:59.287Z,102201.31
2019-02-25T02:02:27.089Z,102209.06
2019-02-25T02:04:54.855Z,102203.46
2019-02-25T02:07:22.934Z,102206.48
2019-02-25T02:09:50.993Z,102202.55
2019-02-25T02:12:18.807Z,102186.73
2019-02-25T02:14:46.571Z,102198.55
2019-02-25T02:17:14.366Z,102200.66
2019-02-25T02:19:42.215Z,102195.93
2019-02-25T02:22:10.017Z,102193.57
2019-02-25T02:24:37.758Z,102184.55
2019-02-25T02:27:05.592Z,102192.52
2019-02-25T02:29:33.355Z,102186.08
2019-02-25T02:32:01.281Z,102177.28
2019-02-25T02:34:29.041Z,102172.56
2019-02-25T02:36:56.885Z,102174.40
2019-02-25T02:39:24.725Z,102173.92
2019-02-25T02:42:21.190Z,102164.81
2019-02-25T02:44:51.882Z,102169.06
2019-02-25T02:47:45.398Z,102152.34
2019-02-25T02:50:16.687Z,102158.13
2019-02-25T02:52:44.442Z,102159.04
2019-02-25T02:55:12.340Z,102155.73
2019-02-25T02:57:40.214Z,102163.90
2019-02-25T03:00:11.390Z,102149.46
2019-02-25T03:02:39.134Z,102146.18
2019-02-25T03:05:09.264Z,102151.83
2019-02-25T03:07:37.842Z,102157.91
2019-02-25T03:10:06.915Z,102148.80
2019-02-25T03:12:34.763Z,102152.74
2019-02-25T03:15:02.664Z,102148.94
2019-02-25T03:17:30.413Z,102141.38
2019-02-25T03:19:58.373Z,102145.92
2019-02-25T03:22:26.405Z,102144.48
2019-02-25T03:24:54.331Z,102145.27
2019-02-25T03:27:22.182Z,102158.39
2019-02-25T03:29:49.984Z,102161.02
2019-02-25T03:32:17.872Z,102156.02
2019-02-25T03:34:45.693Z,102157.99
2019-02-25T03:37:13.458Z,102156.81
2019-02-25T03:39:41.257Z,102150.30
2019-02-25T03:42:09.119Z,102144.08
2019-02-25T03:44:37.005Z,102146.36
2019-02-25T03:47:04.755Z,102147.36
2019-02-25T03:49:32.576Z,102139.53
2019-02-25T03:52:00.346Z,102132.63
2019-02-25T03:54:28.240Z,102130.40
2019-02-25T03:56:56.201Z,102124.31
2019-02-25T03:59:24.143Z,102130.92
2019-02-25T04:01:52.824Z,102132.77
2019-02-25T04:04:27.143Z,102124.97
2019-02-25T04:06:55.378Z,102120.64
2019-02-25T04:09:23.305Z,102121.69
2019-02-25T04:11:51.142Z,102121.30
2019-02-25T04:14:20.650Z,102119.20
2019-02-25T04:16:48.493Z,102115.70
2019-02-25T04:19:16.430Z,102112.11
2019-02-25T04:21:44.264Z,102113.16
2019-02-25T04:24:12.203Z,102113.99
2019-02-25T04:26:39.981Z,102097.33
2019-02-25T04:29:07.907Z,102113.59
2019-02-25T04:31:35.650Z,102109.66
2019-02-25T04:34:03.580Z,102106.78
2019-02-25T04:36:31.454Z,102106.25
2019-02-25T04:38:59.215Z,102110.19
2019-02-25T04:41:27.046Z,102115.31
2019-02-25T04:43:56.032Z,102111.77
2019-02-25T04:46:24.815Z,102108.36
2019-02-25T04:48:52.571Z,102105.16
2019-02-25T04:51:20.396Z,102110.45
2019-02-25T04:53:48.171Z,102107.39
2019-02-25T04:56:15.965Z,102124.17
2019-02-25T04:58:44.541Z,102128.95
2019-02-25T05:01:14.521Z,102133.28
2019-02-25T05:03:42.291Z,102143.47
2019-02-25T05:06:14.375Z,102134.33
2019-02-25T05:08:42.304Z,102135.91
2019-02-25T05:11:10.202Z,102141.23
2019-02-25T05:13:37.945Z,102145.48
2019-02-25T05:16:05.946Z,102146.54
2019-02-25T05:18:33.794Z,102143.08
2019-02-25T05:21:01.627Z,102148.33
2019-02-25T05:23:29.605Z,102149.30
2019-02-25T05:25:57.413Z,102146.14
2019-02-25T05:28:25.189Z,102144.00
2019-02-25T05:30:53.326Z,102139.53
2019-02-25T05:33:21.086Z,102137.44
2019-02-25T05:35:48.977Z,102138.00
2019-02-25T05:38:16.735Z,102141.02
2019-02-25T05:40:44.670Z,102138.92
2019-02-25T05:43:12.433Z,102138.61
2019-02-25T05:45:40.342Z,102145.17
2019-02-25T05:48:08.188Z,102145.74
2019-02-25T05:50:36.035Z,102150.67
2019-02-25T05:53:04.000Z,102148.49
2019-02-25T05:55:31.913Z,102151.64
2019-02-25T05:58:00.183Z,102157.80
2019-02-25T06:00:29.260Z,102160.91
2019-02-25T06:02:57.104Z,102153.55
2019-02-25T06:05:25.331Z,102147.95
2019-02-25T06:07:53.276Z,102147.12
2019-02-25T06:10:21.280Z,102147.04
2019-02-25T06:12:49.307Z,102136.15
2019-02-25T06:15:17.331Z,102137.81
2019-02-25T06:17:45.199Z,102135.50
2019-02-25T06:20:13.425Z,102139.31
2019-02-25T06:22:41.263Z,102143.72
2019-02-25T06:25:09.922Z,102136.38
2019-02-25T06:27:37.801Z,102138.91
2019-02-25T06:30:06.870Z,102139.83
2019-02-25T06:32:34.959Z,102141.54
2019-02-25T06:35:04.053Z,102141.41
2019-02-25T06:37:32.158Z,102143.52
2019-02-25T06:40:01.076Z,102129.42
2019-02-25T06:42:28.975Z,102126.41
2019-02-25T06:44:56.710Z,102128.03
2019-02-25T06:47:24.534Z,102134.98
2019-02-25T06:49:52.311Z,102134.86
2019-02-25T06:52:20.219Z,102131.97
2019-02-25T06:54:48.111Z,102134.86
2019-02-25T06:57:16.079Z,102139.14
2019-02-25T06:59:44.765Z,102130.17
2019-02-25T07:02:12.570Z,102131.08
2019-02-25T07:04:57.756Z,102129.37
2019-02-25T07:07:59.986Z,102123.31
2019-02-25T07:10:47.532Z,102124.14
2019-02-25T07:13:35.020Z,102123.02
2019-02-25T07:16:31.646Z,102134.87
2019-02-25T07:19:17.513Z,102141.51
2019-02-25T07:22:10.668Z,102142.88
2019-02-25T07:24:57.871Z,102151.35
2019-02-25T07:27:43.787Z,102149.28
2019-02-25T07:30:37.117Z,102165.10
2019-02-25T07:33:29.156Z,102154.84
2019-02-25T07:36:09.614Z,102157.18
2019-02-25T07:38:55.996Z,102156.30
2019-02-25T07:41:59.008Z,102159.72
2019-02-25T07:44:45.050Z,102161.91
2019-02-25T07:47:20.230Z,102174.87
2019-02-25T07:50:09.720Z,102180.31
2019-02-25T07:52:45.581Z,102184.27
2019-02-25T07:55:36.587Z,102183.72
2019-02-25T07:58:29.748Z,102187.67
2019-02-25T08:01:08.586Z,102190.78
2019-02-25T08:03:42.945Z,102191.62
2019-02-25T08:06:28.854Z,102189.08
2019-02-25T08:09:17.884Z,102190.73
2019-02-25T08:12:08.204Z,102192.82
2019-02-25T08:14:58.882Z,102190.73
2019-02-25T08:17:44.590Z,102194.47
2019-02-25T08:20:27.364Z,102187.67
2019-02-25T08:23:26.863Z,102191.39
2019-02-25T08:26:19.749Z,102186.73
2019-02-25T08:29:22.478Z,102187.73
2019-02-25T08:32:22.094Z,102181.78
2019-02-25T08:35:04.968Z,102180.86
2019-02-25T08:38:01.984Z,102175.27
2019-02-25T08:41:14.996Z,102167.37
2019-02-25T08:44:13.629Z,102173.70
2019-02-25T08:47:03.706Z,102178.05
2019-02-25T08:49:37.723Z,102181.75
2019-02-25T08:52:06.274Z,102177.09
2019-02-25T08:54:34.311Z,102183.58
2019-02-25T08:57:02.586Z,102190.33
2019-02-25T08:59:30.553Z,102197.20
2019-02-25T09:01:58.336Z,102192.37
2019-02-25T09:04:26.878Z,102193.75
2019-02-25T09:06:54.741Z,102197.76
2019-02-25T09:09:22.706Z,102199.13
2019-02-25T09:11:50.683Z,102193.55
2019-02-25T09:14:18.785Z,102189.98
2019-02-25T09:16:46.762Z,102191.45
2019-02-25T09:19:14.651Z,102196.00
2019-02-25T09:21:42.452Z,102205.19
2019-02-25T09:24:10.214Z,102205.23
2019-02-25T09:26:38.018Z,102196.17
2019-02-25T09:29:05.863Z,102192.95
2019-02-25T09:31:33.659Z,102198.61
2019-02-25T09:34:02.402Z,102199.02
2019-02-25T09:36:30.420Z,102199.78
2019-02-25T09:38:58.152Z,102191.89
2019-02-25T09:41:29.841Z,102188.21
2019-02-25T09:43:55.834Z,102178.34
2019-02-25T09:46:23.957Z,102179.86
2019-02-25T09:48:51.727Z,102173.03
2019-02-25T09:51:19.526Z,102164.83
2019-02-25T09:53:47.277Z,102165.30
2019-02-25T09:56:15.898Z,102155.67
2019-02-25T09:58:43.627Z,102147.66
2019-02-25T10:01:12.534Z,102146.02
2019-02-25T10:03:40.289Z,102141.20
2019-02-25T10:06:08.204Z,102128.67
2019-02-25T10:08:36.027Z,102126.91
2019-02-25T10:11:04.553Z,102119.34
2019-02-25T10:13:32.363Z,102106.68
2019-02-25T10:16:00.145Z,102105.00
2019-02-25T10:18:27.887Z,102098.64
2019-02-25T10:20:55.667Z,102092.59
2019-02-25T10:23:24.239Z,102085.31
2019-02-25T10:25:52.150Z,102080.78
2019-02-25T10:28:19.884Z,102080.56
2019-02-25T10:30:52.715Z,102063.77
2019-02-25T10:33:17.497Z,102074.63
2019-02-25T10:35:45.267Z,102070.25
2019-02-25T10:38:13.033Z,102071.53
2019-02-25T10:40:40.861Z,102070.37
2019-02-25T10:43:08.631Z,102067.78
2019-02-25T10:45:38.899Z,102060.70
2019-02-25T10:48:09.128Z,102063.72
2019-02-25T10:50:38.681Z,102063.52
2019-02-25T10:53:07.673Z,102062.27
2019-02-25T10:55:40.068Z,102060.70
2019-02-25T10:58:09.329Z,102054.81
2019-02-25T11:00:39.433Z,102047.70
2019-02-25T11:03:07.270Z,102042.23
2019-02-25T11:05:35.250Z,102036.11
2019-02-25T11:08:07.478Z,102040.50
2019-02-25T11:10:39.927Z,102032.05
2019-02-25T11:13:08.646Z,102027.90
2019-02-25T11:15:38.033Z,102020.98
2019-02-25T11:18:07.589Z,102015.66
2019-02-25T11:20:37.665Z,102006.80
2019-02-25T11:23:05.438Z,102011.17
2019-02-25T11:25:33.284Z,102001.04
2019-02-25T11:28:03.270Z,101996.42
2019-02-25T11:30:31.813Z,101995.05
2019-02-25T11:33:00.505Z,101996.06
2019-02-25T11:35:28.254Z,102014.95
2019-02-25T11:37:58.533Z,101987.78
2019-02-25T11:40:28.219Z,101985.63
2019-02-25T11:42:55.831Z,101987.73
2019-02-25T11:45:23.899Z,101992.85
2019-02-25T11:47:51.797Z,101978.85
2019-02-25T11:50:23.378Z,101982.58
2019-02-25T11:52:51.368Z,101972.41
2019-02-25T11:55:19.301Z,101953.26
2019-02-25T11:57:47.123Z,101946.42
2019-02-25T12:00:16.709Z,101932.09
2019-02-25T12:02:44.912Z,101923.61
2019-02-25T12:05:13.676Z,101915.92
2019-02-25T12:07:42.370Z,101915.25
2019-02-25T12:10:10.524Z,101901.98
2019-02-25T12:12:38.304Z,101901.98
2019-02-25T12:15:06.702Z,101906.50
2019-02-25T12:17:34.617Z,101894.09
2019-02-25T12:20:02.681Z,101894.09
2019-02-25T12:22:30.498Z,101887.45
2019-02-25T12:24:58.355Z,101901.42
2019-02-25T12:27:26.137Z,101901.42
2019-02-25T12:29:53.910Z,101899.44
2019-02-25T12:32:21.692Z,101899.44
2019-02-25T12:34:49.570Z,101913.45
2019-02-25T12:37:17.592Z,101913.45
2019-02-25T12:39:47.124Z,101912.59
2019-02-25T12:42:15.021Z,101900.61
2019-02-25T12:44:43.789Z,101907.34
2019-02-25T12:47:11.692Z,101906.17
2019-02-25T12:49:39.448Z,101887.97
2019-02-25T12:52:10.111Z,101887.97
2019-02-25T12:54:38.127Z,101881.69
2019-02-25T12:57:06.098Z,101858.02
2019-02-25T12:59:33.897Z,101858.62
2019-02-25T13:02:01.632Z,101858.62
2019-02-25T13:04:29.562Z,101851.05
2019-02-25T13:06:57.306Z,101851.05
2019-02-25T13:09:25.524Z,101845.20
2019-02-25T13:11:53.878Z,101843.23
2019-02-25T13:14:21.661Z,101844.77
2019-02-25T13:16:49.473Z,101838.36
2019-02-25T13:19:18.267Z,101831.38
2019-02-25T13:21:45.996Z,101831.38
2019-02-25T13:24:13.809Z,101819.77
2019-02-25T13:26:41.562Z,101812.31
2019-02-25T13:29:09.379Z,101804.45
2019-02-25T13:31:37.129Z,101811.34
2019-02-25T13:34:05.125Z,101798.59
2019-02-25T13:36:32.876Z,101786.64
2019-02-25T13:39:00.665Z,101786.64
2019-02-25T13:41:28.522Z,101790.31
2019-02-25T13:43:56.763Z,101771.08
2019-02-25T13:46:24.525Z,101763.00
2019-02-25T13:48:52.418Z,101781.88
2019-02-25T13:51:20.278Z,101774.73
2019-02-25T13:53:49.943Z,101773.88
2019-02-25T13:56:17.790Z,101775.03
2019-02-25T13:58:45.716Z,101772.00
2019-02-25T14:01:15.320Z,101765.39
2019-02-25T14:03:43.140Z,101765.39
2019-02-25T14:06:11.682Z,101776.48
2019-02-25T14:08:39.474Z,101760.74
2019-02-25T14:11:07.387Z,101765.72
2019-02-25T14:13:35.209Z,101764.19
2019-02-25T14:16:03.343Z,101768.82
2019-02-25T14:18:32.059Z,101768.82
2019-02-25T14:21:00.292Z,101755.19
2019-02-25T14:23:28.216Z,101762.12
2019-02-25T14:25:58.802Z,101755.91
2019-02-25T14:28:26.364Z,101757.38
2019-02-25T14:30:54.237Z,101756.14
2019-02-25T14:33:23.525Z,101756.14
2019-02-25T14:35:53.091Z,101736.33
2019-02-25T14:38:23.227Z,101742.81
2019-02-25T14:40:51.932Z,101742.39
2019-02-25T14:43:22.691Z,101738.63
2019-02-25T14:45:53.933Z,101734.63
2019-02-25T14:48:22.858Z,101735.47
2019-02-25T14:50:50.687Z,101727.02
2019-02-25T14:53:19.305Z,101734.59
2019-02-25T14:55:49.556Z,101726.13
2019-02-25T14:58:17.547Z,101726.13
2019-02-25T15:00:45.837Z,101732.22
2019-02-25T15:03:13.848Z,101740.94
2019-02-25T15:05:42.169Z,101734.31
2019-02-25T15:08:10.213Z,101739.67
2019-02-25T15:10:40.782Z,101745.87
2019-02-25T15:13:10.829Z,101744.28
2019-02-25T15:15:40.864Z,101741.70
2019-02-25T15:18:09.317Z,101741.94
2019-02-25T15:20:37.133Z,101743.08
2019-02-25T15:23:07.368Z,101738.84
2019-02-25T15:25:37.237Z,101747.14
2019-02-25T15:28:07.375Z,101744.54
2019-02-25T15:30:35.302Z,101751.16
2019-02-25T15:33:03.139Z,101748.15
2019-02-25T15:35:34.137Z,101757.59
2019-02-25T15:38:01.119Z,101753.24
2019-02-25T15:40:29.937Z,101760.84
2019-02-25T15:43:02.746Z,101743.36
2019-02-25T15:45:32.907Z,101738.20
2019-02-25T15:48:02.117Z,101735.02
2019-02-25T15:50:30.335Z,101735.36
2019-02-25T15:53:02.540Z,101733.50
2019-02-25T15:55:28.888Z,101725.08
2019-02-25T15:57:56.865Z,101727.34
2019-02-25T16:00:27.701Z,101728.22
2019-02-25T16:02:56.726Z,101722.41
2019-02-25T16:05:27.392Z,101715.61
2019-02-25T16:07:58.012Z,101715.61
2019-02-25T16:10:27.202Z,101733.56
2019-02-25T16:12:57.653Z,101737.91
2019-02-25T16:15:25.670Z,101746.70
2019-02-25T16:17:54.113Z,101750.83
2019-02-25T16:20:22.012Z,101758.50
2019-02-25T16:22:50.140Z,101755.73
2019-02-25T16:25:18.267Z,101747.34
2019-02-25T16:27:49.887Z,101755.63
2019-02-25T16:30:30.519Z,101755.63
2019-02-25T16:32:56.867Z,101756.03
2019-02-25T16:35:24.847Z,101759.80
2019-02-25T16:37:55.323Z,101741.84
2019-02-25T16:40:26.448Z,101759.12
2019-02-25T16:42:54.903Z,101744.56
2019-02-25T16:45:22.765Z,101751.16
2019-02-25T16:47:50.643Z,101759.37
2019-02-25T16:50:20.947Z,101763.86
2019-02-25T16:52:49.588Z,101777.02
2019-02-25T16:55:19.970Z,101777.02
2019-02-25T16:57:47.912Z,101775.55
2019-02-25T17:00:16.733Z,101773.75
2019-02-25T17:02:44.913Z,101761.81
2019-02-25T17:05:19.670Z,101760.59
2019-02-25T17:07:48.997Z,101757.45
2019-02-25T17:10:17.104Z,101751.16
2019-02-25T17:12:45.739Z,101745.62
2019-02-25T17:15:15.928Z,101755.06
2019-02-25T17:17:43.902Z,101753.38
2019-02-25T17:20:13.372Z,101760.75
2019-02-25T17:22:42.159Z,101750.97
2019-02-25T17:25:12.129Z,101750.97
2019-02-25T17:27:41.198Z,101757.36
2019-02-25T17:30:13.500Z,101757.36
2019-02-25T17:32:48.399Z,101762.83
2019-02-25T17:35:18.799Z,101762.83
2019-02-25T17:37:46.813Z,101755.45
2019-02-25T17:40:15.083Z,101753.28
2019-02-25T17:42:44.810Z,101753.49
2019-02-25T17:45:15.053Z,101753.49
2019-02-25T17:47:43.761Z,101751.94
2019-02-25T17:50:14.048Z,101753.03
2019-02-25T17:52:45.168Z,101748.58
2019-02-25T17:55:15.420Z,101753.03
2019-02-25T17:57:43.424Z,101753.03
2019-02-25T18:00:15.444Z,101750.61
2019-02-25T18:02:44.873Z,101760.74
2019-02-25T18:05:14.268Z,101761.44
2019-02-25T18:07:44.296Z,101761.44
2019-02-25T18:10:13.085Z,101768.06
2019-02-25T18:12:41.506Z,101761.42
2019-02-25T18:15:14.292Z,101771.67
2019-02-25T18:17:43.183Z,101783.37
2019-02-25T18:20:12.368Z,101786.64
2019-02-25T18:22:40.216Z,101783.94
2019-02-25T18:25:08.535Z,101785.55
2019-02-25T18:27:37.378Z,101785.55
2019-02-25T18:30:06.884Z,101789.89
2019-02-25T18:32:36.966Z,101783.28
2019-02-25T18:35:06.771Z,101784.21
2019-02-25T18:37:35.489Z,101780.92
2019-02-25T18:40:04.944Z,101774.52
2019-02-25T18:42:34.873Z,101774.52
2019-02-25T18:45:02.943Z,101758.80
2019-02-25T18:47:30.931Z,101758.80
2019-02-25T18:50:00.797Z,101761.58
2019-02-25T18:52:29.673Z,101763.71
2019-02-25T18:54:59.873Z,101757.16
2019-02-25T18:57:29.454Z,101759.61
2019-02-25T18:59:59.265Z,101758.27
2019-02-25T19:02:27.418Z,101750.94
2019-02-25T19:04:55.467Z,101748.13
2019-02-25T19:07:25.134Z,101744.53
2019-02-25T19:09:53.871Z,101747.67
2019-02-25T19:12:23.078Z,101744.73
2019-02-25T19:14:53.339Z,101749.08
2019-02-25T19:17:21.559Z,101749.09
2019-02-25T19:19:51.638Z,101749.81
2019-02-25T19:22:21.533Z,101746.80
2019-02-25T19:24:50.858Z,101742.61
2019-02-25T19:27:18.898Z,101746.13
2019-02-25T19:29:49.077Z,101744.16
2019-02-25T19:32:16.850Z,101744.58
2019-02-25T19:34:44.846Z,101742.30
2019-02-25T19:37:15.805Z,101738.40
2019-02-25T19:39:46.226Z,101730.11
2019-02-25T19:42:15.451Z,101731.20
2019-02-25T19:44:44.130Z,101725.81
2019-02-25T19:47:14.054Z,101722.73
2019-02-25T19:49:43.481Z,101726.34
2019-02-25T19:52:13.866Z,101721.63
2019-02-25T19:54:43.350Z,101718.92
2019-02-25T19:57:14.058Z,101713.33
2019-02-25T19:59:43.359Z,101713.97
2019-02-25T20:02:11.085Z,101708.68
2019-02-25T20:04:40.056Z,101703.33
2019-02-25T20:07:08.617Z,101697.30
2019-02-25T20:09:40.140Z,101696.99
2019-02-25T20:12:06.445Z,101703.23
2019-02-25T20:14:34.242Z,101705.42
2019-02-25T20:17:02.743Z,101705.38
2019-02-25T20:19:30.877Z,101710.09
2019-02-25T20:21:58.896Z,101706.92
2019-02-25T20:24:27.312Z,101710.98
2019-02-25T20:26:57.849Z,101704.55
2019-02-25T20:29:25.011Z,101698.98
2019-02-25T20:31:53.627Z,101708.08
2019-02-25T20:34:22.908Z,101707.60
2019-02-25T20:36:53.063Z,101704.87
2019-02-25T20:39:28.760Z,101709.66
2019-02-25T20:41:58.614Z,101706.66
2019-02-25T20:44:28.339Z,101703.48
2019-02-25T20:46:57.302Z,101705.09
2019-02-25T20:49:29.532Z,101708.23
2019-02-25T20:51:57.016Z,101711.70
2019-02-25T20:54:25.267Z,101719.30
2019-02-25T20:56:53.699Z,101724.18
2019-02-25T20:59:23.986Z,101726.28
2019-02-25T21:01:52.811Z,101719.67
2019-02-25T21:04:22.295Z,101725.58
2019-02-25T21:06:50.322Z,101727.36
2019-02-25T21:09:18.242Z,101730.66
2019-02-25T21:11:46.004Z,101726.28
2019-02-25T21:14:13.964Z,101731.73
2019-02-25T21:16:42.202Z,101737.67
2019-02-25T21:19:12.576Z,101733.51
2019-02-25T21:21:40.144Z,101729.63
2019-02-25T21:24:08.860Z,101725.61
2019-02-25T21:26:38.761Z,101717.41
2019-02-25T21:29:09.606Z,101726.36
2019-02-25T21:31:37.031Z,101719.59
2019-02-25T21:34:05.340Z,101712.48
2019-02-25T21:36:33.882Z,101706.75
2019-02-25T21:39:03.891Z,101710.55
2019-02-25T21:41:43.514Z,101710.59
2019-02-25T21:44:16.642Z,101703.61
2019-02-25T21:46:41.961Z,101693.74
2019-02-25T21:49:09.721Z,101694.86
2019-02-25T21:51:39.299Z,101697.42
2019-02-25T21:54:08.936Z,101715.83
2019-02-25T21:56:36.981Z,101716.35
2019-02-25T21:59:06.219Z,101699.72
2019-02-25T22:01:36.387Z,101706.45
2019-02-25T22:04:04.294Z,101699.55
2019-02-25T22:06:33.262Z,101705.73
2019-02-25T22:09:02.876Z,101708.75
2019-02-25T22:11:30.836Z,101717.53
2019-02-25T22:13:58.618Z,101701.02
2019-02-25T22:16:29.545Z,101704.64
2019-02-25T22:18:56.607Z,101697.92
2019-02-25T22:21:25.859Z,101697.12
2019-02-25T22:23:56.129Z,101698.89
2019-02-25T22:26:27.208Z,101691.02
2019-02-25T22:28:55.273Z,101696.22
2019-02-25T22:31:23.653Z,101696.30
2019-02-25T22:33:51.487Z,101700.55
2019-02-25T22:36:19.407Z,101702.27
2019-02-25T22:38:47.136Z,101703.39
2019-02-25T22:41:16.727Z,101699.14
2019-02-25T22:43:48.200Z,101692.55
2019-02-25T22:46:16.181Z,101692.86
2019-02-25T22:48:45.498Z,101689.09
2019-02-25T22:51:13.637Z,101689.84
2019-02-25T22:53:42.377Z,101690.13
2019-02-25T22:56:13.295Z,101683.92
2019-02-25T22:58:42.483Z,101677.05
2019-02-25T23:01:17.588Z,101671.77
2019-02-25T23:03:45.578Z,101669.05
2019-02-25T23:06:15.647Z,101665.19
2019-02-25T23:08:44.264Z,101668.52
2019-02-25T23:11:14.436Z,101665.67
2019-02-25T23:13:43.851Z,101664.84
2019-02-25T23:16:13.365Z,101656.92
2019-02-25T23:18:42.276Z,101645.61
2019-02-25T23:21:10.228Z,101647.88
2019-02-25T23:23:40.026Z,101653.83
2019-02-25T23:26:07.711Z,101658.41
2019-02-25T23:28:36.389Z,101656.83
2019-02-25T23:31:04.344Z,101652.95
2019-02-25T23:33:32.147Z,101644.42
2019-02-25T23:35:59.881Z,101643.73
2019-02-25T23:38:27.770Z,101647.05
2019-02-25T23:40:55.634Z,101642.98
2019-02-25T23:43:23.550Z,101631.48
2019-02-25T23:46:00.569Z,101637.89
2019-02-25T23:48:32.926Z,101632.92
2019-02-25T23:50:59.754Z,101643.92
2019-02-25T23:53:28.854Z,101629.80
2019-02-25T23:55:58.765Z,101630.84
2019-02-25T23:58:26.732Z,101638.45
